sensor_id;sensor_type;location;lat;lon;timestamp;pressure;altitude;pressure_sealevel;temperature;humidity
11676;BME280;5894;42.768;23.404;2023-03-20T00:00:29;95999.69;;;4.80;100.00
11676;BME280;5894;42.768;23.404;2023-03-20T00:02:57;96004.97;;;4.90;100.00
11676;BME280;5894;42.768;23.404;2023-03-20T00:05:25;95990.81;;;4.81;100.00
11676;BME280;5894;42.768;23.404;2023-03-20T00:07:52;95986.34;;;4.71;100.00
11676;BME280;5894;42.768;23.404;2023-03-20T00:10:20;95977.41;;;4.62;100.00
11676;BME280;5894;42.768;23.404;2023-03-20T00:12:49;95948.22;;;4.28;100.00
11676;BME280;5894;42.768;23.404;2023-03-20T00:15:29;95990.66;;;4.51;100.00
11676;BME280;5894;42.768;23.404;2023-03-20T00:17:56;95990.16;;;4.54;100.00
11676;BME280;5894;42.768;23.404;2023-03-20T00:20:23;95979.66;;;4.49;100.00
11676;BME280;5894;42.768;23.404;2023-03-20T00:22:51;95939.84;;;4.26;100.00
11676;BME280;5894;42.768;23.404;2023-03-20T00:25:19;95972.66;;;4.54;100.00
11676;BME280;5894;42.768;23.404;2023-03-20T00:27:47;95928.66;;;4.31;100.00
11676;BME280;5894;42.768;23.404;2023-03-20T00:30:19;95977.41;;;4.62;100.00
11676;BME280;5894;42.768;23.404;2023-03-20T00:32:49;95873.06;;;3.88;100.00
11676;BME280;5894;42.768;23.404;2023-03-20T00:35:18;95937.34;;;4.41;100.00
11676;BME280;5894;42.768;23.404;2023-03-20T00:37:46;95949.16;;;4.54;100.00
11676;BME280;5894;42.768;23.404;2023-03-20T00:40:13;95859.25;;;3.93;100.00
11676;BME280;5894;42.768;23.404;2023-03-20T00:42:41;95967.69;;;4.58;100.00
11676;BME280;5894;42.768;23.404;2023-03-20T00:45:12;95963.81;;;4.60;100.00
11676;BME280;5894;42.768;23.404;2023-03-20T00:47:40;95958.53;;;4.50;100.00
11676;BME280;5894;42.768;23.404;2023-03-20T00:50:16;95935.47;;;4.37;100.00
11676;BME280;5894;42.768;23.404;2023-03-20T00:52:43;95947.84;;;4.52;100.00
11676;BME280;5894;42.768;23.404;2023-03-20T00:55:11;95976.63;;;4.62;100.00
11676;BME280;5894;42.768;23.404;2023-03-20T00:57:41;95930.78;;;4.39;100.00
11676;BME280;5894;42.768;23.404;2023-03-20T01:00:19;95948.31;;;4.49;100.00
11676;BME280;5894;42.768;23.404;2023-03-20T01:02:50;95964.34;;;4.62;100.00
11676;BME280;5894;42.768;23.404;2023-03-20T01:05:19;95963.25;;;4.58;100.00
11676;BME280;5894;42.768;23.404;2023-03-20T01:07:47;95958.84;;;4.59;100.00
11676;BME280;5894;42.768;23.404;2023-03-20T01:10:14;95992.00;;;4.58;100.00
11676;BME280;5894;42.768;23.404;2023-03-20T01:12:42;95966.16;;;4.62;100.00
11676;BME280;5894;42.768;23.404;2023-03-20T01:15:17;95931.84;;;4.43;100.00
11676;BME280;5894;42.768;23.404;2023-03-20T01:17:44;95916.63;;;4.30;100.00
11676;BME280;5894;42.768;23.404;2023-03-20T01:20:21;95949.38;;;4.48;100.00
11676;BME280;5894;42.768;23.404;2023-03-20T01:22:48;95953.53;;;4.43;100.00
11676;BME280;5894;42.768;23.404;2023-03-20T01:25:16;95926.22;;;4.19;100.00
11676;BME280;5894;42.768;23.404;2023-03-20T01:27:45;95919.13;;;4.10;100.00
11676;BME280;5894;42.768;23.404;2023-03-20T01:30:19;95963.41;;;4.36;100.00
11676;BME280;5894;42.768;23.404;2023-03-20T01:32:46;95964.72;;;4.39;100.00
11676;BME280;5894;42.768;23.404;2023-03-20T01:35:15;95934.53;;;4.11;100.00
11676;BME280;5894;42.768;23.404;2023-03-20T01:37:44;95965.25;;;4.36;100.00
11676;BME280;5894;42.768;23.404;2023-03-20T01:40:22;95954.25;;;4.34;100.00
11676;BME280;5894;42.768;23.404;2023-03-20T01:42:52;95966.00;;;4.31;100.00
11676;BME280;5894;42.768;23.404;2023-03-20T01:45:23;95967.28;;;4.29;100.00
11676;BME280;5894;42.768;23.404;2023-03-20T01:47:52;95968.34;;;4.33;100.00
11676;BME280;5894;42.768;23.404;2023-03-20T01:50:26;95970.19;;;4.37;100.00
11676;BME280;5894;42.768;23.404;2023-03-20T01:53:05;95969.34;;;4.27;100.00
11676;BME280;5894;42.768;23.404;2023-03-20T01:55:39;95967.75;;;4.21;100.00
11676;BME280;5894;42.768;23.404;2023-03-20T01:58:12;95966.16;;;4.20;100.00
11676;BME280;5894;42.768;23.404;2023-03-20T02:00:41;95962.75;;;4.14;100.00
11676;BME280;5894;42.768;23.404;2023-03-20T02:03:12;95959.28;;;4.03;100.00
11676;BME280;5894;42.768;23.404;2023-03-20T02:06:11;95953.22;;;3.98;100.00
11676;BME280;5894;42.768;23.404;2023-03-20T02:09:03;95962.25;;;3.85;100.00
11676;BME280;5894;42.768;23.404;2023-03-20T02:11:37;95955.44;;;3.84;100.00
11676;BME280;5894;42.768;23.404;2023-03-20T02:14:05;95945.63;;;3.91;100.00
11676;BME280;5894;42.768;23.404;2023-03-20T02:16:53;95948.75;;;3.93;100.00
11676;BME280;5894;42.768;23.404;2023-03-20T02:19:47;95954.19;;;3.87;100.00
11676;BME280;5894;42.768;23.404;2023-03-20T02:22:34;95940.88;;;3.88;100.00
11676;BME280;5894;42.768;23.404;2023-03-20T02:31:29;95957.88;;;3.91;100.00
11676;BME280;5894;42.768;23.404;2023-03-20T02:34:46;95948.97;;;3.87;100.00
11676;BME280;5894;42.768;23.404;2023-03-20T02:37:40;95946.81;;;3.79;100.00
11676;BME280;5894;42.768;23.404;2023-03-20T02:40:18;95937.38;;;3.73;100.00
11676;BME280;5894;42.768;23.404;2023-03-20T02:42:55;95955.44;;;3.84;100.00
11676;BME280;5894;42.768;23.404;2023-03-20T02:45:27;95920.31;;;3.60;100.00
11676;BME280;5894;42.768;23.404;2023-03-20T02:48:13;95933.22;;;3.77;100.00
11676;BME280;5894;42.768;23.404;2023-03-20T02:50:46;95945.31;;;3.88;100.00
11676;BME280;5894;42.768;23.404;2023-03-20T02:53:25;95923.00;;;3.70;100.00
11676;BME280;5894;42.768;23.404;2023-03-20T02:56:03;95941.44;;;3.90;100.00
11676;BME280;5894;42.768;23.404;2023-03-20T02:58:36;95925.56;;;3.65;100.00
11676;BME280;5894;42.768;23.404;2023-03-20T03:01:09;95949.81;;;3.92;100.00
11676;BME280;5894;42.768;23.404;2023-03-20T03:03:42;95941.28;;;3.75;100.00
11676;BME280;5894;42.768;23.404;2023-03-20T03:06:16;95949.19;;;3.80;100.00
11676;BME280;5894;42.768;23.404;2023-03-20T03:08:48;95951.16;;;3.68;100.00
11676;BME280;5894;42.768;23.404;2023-03-20T03:11:17;95948.63;;;3.78;100.00
11676;BME280;5894;42.768;23.404;2023-03-20T03:13:46;95941.22;;;3.65;100.00
11676;BME280;5894;42.768;23.404;2023-03-20T03:16:17;95946.66;;;3.63;100.00
11676;BME280;5894;42.768;23.404;2023-03-20T03:18:45;95935.88;;;3.50;100.00
11676;BME280;5894;42.768;23.404;2023-03-20T03:21:16;95950.81;;;3.32;100.00
11676;BME280;5894;42.768;23.404;2023-03-20T03:23:47;95933.88;;;3.30;100.00
11676;BME280;5894;42.768;23.404;2023-03-20T03:26:18;95942.75;;;3.34;100.00
11676;BME280;5894;42.768;23.404;2023-03-20T03:28:49;95926.66;;;3.15;100.00
11676;BME280;5894;42.768;23.404;2023-03-20T03:31:17;95907.09;;;3.13;100.00
11676;BME280;5894;42.768;23.404;2023-03-20T03:33:47;95952.69;;;3.37;100.00
11676;BME280;5894;42.768;23.404;2023-03-20T03:36:24;95952.66;;;3.32;100.00
11676;BME280;5894;42.768;23.404;2023-03-20T03:38:58;95952.69;;;3.37;100.00
11676;BME280;5894;42.768;23.404;2023-03-20T03:41:31;95950.28;;;3.30;100.00
11676;BME280;5894;42.768;23.404;2023-03-20T03:44:07;95955.69;;;3.51;100.00
11676;BME280;5894;42.768;23.404;2023-03-20T03:46:40;95946.94;;;3.35;100.00
11676;BME280;5894;42.768;23.404;2023-03-20T03:49:13;95924.84;;;3.16;100.00
11676;BME280;5894;42.768;23.404;2023-03-20T03:51:44;95970.13;;;3.31;100.00
11676;BME280;5894;42.768;23.404;2023-03-20T03:54:16;95937.56;;;3.12;100.00
11676;BME280;5894;42.768;23.404;2023-03-20T03:56:57;95929.66;;;3.02;100.00
11676;BME280;5894;42.768;23.404;2023-03-20T03:59:32;95932.72;;;3.21;100.00
11676;BME280;5894;42.768;23.404;2023-03-20T04:02:02;95939.38;;;3.12;100.00
11676;BME280;5894;42.768;23.404;2023-03-20T04:04:34;95947.72;;;3.09;100.00
11676;BME280;5894;42.768;23.404;2023-03-20T04:07:02;95909.78;;;2.96;100.00
11676;BME280;5894;42.768;23.404;2023-03-20T04:09:31;95907.28;;;3.06;100.00
11676;BME280;5894;42.768;23.404;2023-03-20T04:11:58;95867.66;;;2.77;100.00
11676;BME280;5894;42.768;23.404;2023-03-20T04:14:25;95932.13;;;3.14;100.00
11676;BME280;5894;42.768;23.404;2023-03-20T04:16:52;95930.13;;;3.21;100.00
11676;BME280;5894;42.768;23.404;2023-03-20T04:19:19;95917.19;;;3.31;100.00
11676;BME280;5894;42.768;23.404;2023-03-20T04:21:46;95919.53;;;3.32;100.00
11676;BME280;5894;42.768;23.404;2023-03-20T04:24:14;95923.44;;;3.30;100.00
11676;BME280;5894;42.768;23.404;2023-03-20T04:26:43;95922.22;;;3.43;100.00
11676;BME280;5894;42.768;23.404;2023-03-20T04:29:10;95942.91;;;3.49;100.00
11676;BME280;5894;42.768;23.404;2023-03-20T04:31:54;95928.44;;;3.37;100.00
11676;BME280;5894;42.768;23.404;2023-03-20T04:34:38;95930.56;;;3.40;100.00
11676;BME280;5894;42.768;23.404;2023-03-20T04:37:25;95932.56;;;3.32;100.00
11676;BME280;5894;42.768;23.404;2023-03-20T04:40:11;95941.34;;;3.21;100.00
11676;BME280;5894;42.768;23.404;2023-03-20T04:42:42;95925.88;;;3.15;100.00
11676;BME280;5894;42.768;23.404;2023-03-20T04:45:10;95898.59;;;2.95;100.00
11676;BME280;5894;42.768;23.404;2023-03-20T04:47:38;95952.28;;;3.23;100.00
11676;BME280;5894;42.768;23.404;2023-03-20T04:50:05;95949.75;;;3.28;100.00
11676;BME280;5894;42.768;23.404;2023-03-20T04:52:32;95950.56;;;3.34;100.00
11676;BME280;5894;42.768;23.404;2023-03-20T04:55:00;95958.38;;;3.34;100.00
11676;BME280;5894;42.768;23.404;2023-03-20T04:57:28;95948.31;;;3.43;100.00
11676;BME280;5894;42.768;23.404;2023-03-20T04:59:58;95910.31;;;3.20;100.00
11676;BME280;5894;42.768;23.404;2023-03-20T05:02:25;95961.47;;;3.53;100.00
11676;BME280;5894;42.768;23.404;2023-03-20T05:04:52;95956.75;;;3.55;100.00
11676;BME280;5894;42.768;23.404;2023-03-20T05:07:19;95921.31;;;3.27;100.00
11676;BME280;5894;42.768;23.404;2023-03-20T05:09:50;95968.28;;;3.59;100.00
11676;BME280;5894;42.768;23.404;2023-03-20T05:12:18;95974.22;;;3.54;100.00
11676;BME280;5894;42.768;23.404;2023-03-20T05:15:13;95968.03;;;3.60;100.00
11676;BME280;5894;42.768;23.404;2023-03-20T05:17:52;95916.53;;;3.19;100.00
11676;BME280;5894;42.768;23.404;2023-03-20T05:20:37;95859.97;;;2.66;100.00
11676;BME280;5894;42.768;23.404;2023-03-20T05:23:28;95981.44;;;3.42;100.00
11676;BME280;5894;42.768;23.404;2023-03-20T05:26:30;95979.75;;;3.31;100.00
11676;BME280;5894;42.768;23.404;2023-03-20T05:29:16;95868.34;;;2.68;100.00
11676;BME280;5894;42.768;23.404;2023-03-20T05:32:16;95981.94;;;3.44;100.00
11676;BME280;5894;42.768;23.404;2023-03-20T05:34:54;95954.16;;;3.28;100.00
11676;BME280;5894;42.768;23.404;2023-03-20T05:37:29;95974.91;;;3.45;100.00
11676;BME280;5894;42.768;23.404;2023-03-20T05:40:06;95980.00;;;3.56;100.00
11676;BME280;5894;42.768;23.404;2023-03-20T05:43:02;95979.84;;;3.68;100.00
11676;BME280;5894;42.768;23.404;2023-03-20T05:45:29;95967.28;;;3.65;100.00
11676;BME280;5894;42.768;23.404;2023-03-20T05:48:21;95974.31;;;3.64;100.00
11676;BME280;5894;42.768;23.404;2023-03-20T05:51:07;95991.16;;;3.79;100.00
11676;BME280;5894;42.768;23.404;2023-03-20T05:53:49;95970.34;;;3.84;100.00
11676;BME280;5894;42.768;23.404;2023-03-20T05:56:30;95981.34;;;3.91;100.00
11676;BME280;5894;42.768;23.404;2023-03-20T05:59:21;95976.63;;;3.88;100.00
11676;BME280;5894;42.768;23.404;2023-03-20T06:02:20;95974.63;;;4.00;100.00
11676;BME280;5894;42.768;23.404;2023-03-20T06:04:58;95982.59;;;4.15;100.00
11676;BME280;5894;42.768;23.404;2023-03-20T06:07:27;95974.78;;;4.20;100.00
11676;BME280;5894;42.768;23.404;2023-03-20T06:09:59;95971.03;;;4.43;100.00
11676;BME280;5894;42.768;23.404;2023-03-20T06:12:27;95987.06;;;4.62;100.00
11676;BME280;5894;42.768;23.404;2023-03-20T06:14:54;95988.44;;;4.74;100.00
11676;BME280;5894;42.768;23.404;2023-03-20T06:17:22;95973.56;;;4.80;100.00
11676;BME280;5894;42.768;23.404;2023-03-20T06:19:57;95984.66;;;4.97;100.00
11676;BME280;5894;42.768;23.404;2023-03-20T06:22:24;95991.78;;;5.17;100.00
11676;BME280;5894;42.768;23.404;2023-03-20T06:24:51;95987.63;;;5.31;100.00
11676;BME280;5894;42.768;23.404;2023-03-20T06:27:18;95979.00;;;5.36;100.00
11676;BME280;5894;42.768;23.404;2023-03-20T06:29:47;95965.97;;;5.51;100.00
11676;BME280;5894;42.768;23.404;2023-03-20T06:32:19;95934.56;;;5.41;100.00
11676;BME280;5894;42.768;23.404;2023-03-20T06:34:49;95971.53;;;5.80;100.00
11676;BME280;5894;42.768;23.404;2023-03-20T06:37:18;95977.78;;;5.84;100.00
11676;BME280;5894;42.768;23.404;2023-03-20T06:39:45;95957.63;;;5.69;100.00
11676;BME280;5894;42.768;23.404;2023-03-20T06:42:12;95983.88;;;6.00;100.00
11676;BME280;5894;42.768;23.404;2023-03-20T06:44:40;95978.34;;;6.06;100.00
11676;BME280;5894;42.768;23.404;2023-03-20T06:47:18;95973.38;;;6.10;100.00
11676;BME280;5894;42.768;23.404;2023-03-20T06:49:45;95993.53;;;6.24;100.00
11676;BME280;5894;42.768;23.404;2023-03-20T06:52:14;95981.50;;;6.18;100.00
11676;BME280;5894;42.768;23.404;2023-03-20T06:54:45;95980.19;;;6.26;100.00
11676;BME280;5894;42.768;23.404;2023-03-20T06:57:13;95982.53;;;6.38;100.00
11676;BME280;5894;42.768;23.404;2023-03-20T06:59:42;95976.75;;;6.36;100.00
11676;BME280;5894;42.768;23.404;2023-03-20T07:02:09;95943.25;;;6.17;100.00
11676;BME280;5894;42.768;23.404;2023-03-20T07:04:36;95982.50;;;6.58;100.00
11676;BME280;5894;42.768;23.404;2023-03-20T07:07:03;95982.75;;;6.56;100.00
11676;BME280;5894;42.768;23.404;2023-03-20T07:09:33;95980.91;;;6.57;100.00
11676;BME280;5894;42.768;23.404;2023-03-20T07:12:01;95988.25;;;6.70;100.00
11676;BME280;5894;42.768;23.404;2023-03-20T07:14:30;95958.34;;;6.71;100.00
11676;BME280;5894;42.768;23.404;2023-03-20T07:17:02;95976.66;;;6.91;100.00
11676;BME280;5894;42.768;23.404;2023-03-20T07:19:29;95964.56;;;7.00;100.00
11676;BME280;5894;42.768;23.404;2023-03-20T07:21:59;95937.34;;;6.81;100.00
11676;BME280;5894;42.768;23.404;2023-03-20T07:24:32;95962.41;;;7.08;100.00
11676;BME280;5894;42.768;23.404;2023-03-20T07:27:01;95921.34;;;6.88;100.00
11676;BME280;5894;42.768;23.404;2023-03-20T07:29:29;95928.38;;;6.97;100.00
11676;BME280;5894;42.768;23.404;2023-03-20T07:31:57;95976.72;;;7.35;100.00
11676;BME280;5894;42.768;23.404;2023-03-20T07:34:29;95967.03;;;7.36;100.00
11676;BME280;5894;42.768;23.404;2023-03-20T07:36:58;95969.59;;;7.46;100.00
11676;BME280;5894;42.768;23.404;2023-03-20T07:39:25;95971.31;;;7.61;100.00
11676;BME280;5894;42.768;23.404;2023-03-20T07:42:06;95940.69;;;7.51;100.00
11676;BME280;5894;42.768;23.404;2023-03-20T07:44:42;95974.84;;;7.85;100.00
11676;BME280;5894;42.768;23.404;2023-03-20T07:47:10;95969.53;;;7.95;100.00
11676;BME280;5894;42.768;23.404;2023-03-20T07:49:37;95968.41;;;8.01;100.00
11676;BME280;5894;42.768;23.404;2023-03-20T07:52:06;95924.69;;;7.87;100.00
11676;BME280;5894;42.768;23.404;2023-03-20T07:54:33;95961.41;;;8.26;100.00
11676;BME280;5894;42.768;23.404;2023-03-20T07:57:00;95959.22;;;8.38;100.00
11676;BME280;5894;42.768;23.404;2023-03-20T07:59:29;95969.38;;;8.50;100.00
11676;BME280;5894;42.768;23.404;2023-03-20T08:01:56;95967.47;;;8.55;100.00
11676;BME280;5894;42.768;23.404;2023-03-20T08:04:22;95968.16;;;8.66;100.00
11676;BME280;5894;42.768;23.404;2023-03-20T08:06:50;95964.13;;;8.73;100.00
11676;BME280;5894;42.768;23.404;2023-03-20T08:09:17;95968.03;;;8.76;100.00
11676;BME280;5894;42.768;23.404;2023-03-20T08:11:44;95964.00;;;8.83;98.42
11676;BME280;5894;42.768;23.404;2023-03-20T08:14:11;95931.22;;;8.76;96.97
11676;BME280;5894;42.768;23.404;2023-03-20T08:16:39;95957.72;;;9.03;97.96
11676;BME280;5894;42.768;23.404;2023-03-20T08:19:06;95966.78;;;9.16;98.63
11676;BME280;5894;42.768;23.404;2023-03-20T08:21:33;95958.25;;;9.24;97.78
11676;BME280;5894;42.768;23.404;2023-03-20T08:23:59;95957.66;;;9.32;98.84
11676;BME280;5894;42.768;23.404;2023-03-20T08:26:26;95946.63;;;9.30;95.11
11676;BME280;5894;42.768;23.404;2023-03-20T08:28:53;95953.31;;;9.41;97.99
11676;BME280;5894;42.768;23.404;2023-03-20T08:31:20;95962.84;;;9.56;95.92
11676;BME280;5894;42.768;23.404;2023-03-20T08:33:49;95943.00;;;9.45;93.86
11676;BME280;5894;42.768;23.404;2023-03-20T08:36:16;95959.59;;;9.64;94.21
11676;BME280;5894;42.768;23.404;2023-03-20T08:38:45;95953.75;;;9.67;96.17
11676;BME280;5894;42.768;23.404;2023-03-20T08:41:12;95963.28;;;9.82;96.80
11676;BME280;5894;42.768;23.404;2023-03-20T08:43:38;95964.19;;;9.91;97.19
11676;BME280;5894;42.768;23.404;2023-03-20T08:46:05;95955.91;;;9.98;95.63
11676;BME280;5894;42.768;23.404;2023-03-20T08:48:32;95949.91;;;10.11;97.12
11676;BME280;5894;42.768;23.404;2023-03-20T08:51:01;95947.38;;;10.24;96.96
11676;BME280;5894;42.768;23.404;2023-03-20T08:53:27;95910.97;;;10.08;91.97
11676;BME280;5894;42.768;23.404;2023-03-20T08:55:54;95948.88;;;10.44;92.54
11676;BME280;5894;42.768;23.404;2023-03-20T08:58:22;95944.19;;;10.55;87.96
11676;BME280;5894;42.768;23.404;2023-03-20T09:00:48;95943.22;;;10.64;88.04
11676;BME280;5894;42.768;23.404;2023-03-20T09:03:17;95945.41;;;10.76;87.52
11676;BME280;5894;42.768;23.404;2023-03-20T09:05:45;95872.69;;;10.43;86.99
11676;BME280;5894;42.768;23.404;2023-03-20T09:08:14;95932.31;;;10.98;86.47
11676;BME280;5894;42.768;23.404;2023-03-20T09:10:41;95936.47;;;11.13;86.90
11676;BME280;5894;42.768;23.404;2023-03-20T09:13:08;95916.16;;;11.14;81.91
11676;BME280;5894;42.768;23.404;2023-03-20T09:15:35;95904.72;;;11.18;80.30
11676;BME280;5894;42.768;23.404;2023-03-20T09:18:02;95922.63;;;11.44;79.36
11676;BME280;5894;42.768;23.404;2023-03-20T09:20:28;95918.53;;;11.51;78.11
11676;BME280;5894;42.768;23.404;2023-03-20T09:22:55;95919.97;;;11.57;78.03
11676;BME280;5894;42.768;23.404;2023-03-20T09:25:24;95909.75;;;11.64;80.12
11676;BME280;5894;42.768;23.404;2023-03-20T09:27:51;95914.69;;;11.57;77.56
11676;BME280;5894;42.768;23.404;2023-03-20T09:30:20;95908.75;;;11.74;74.62
11676;BME280;5894;42.768;23.404;2023-03-20T09:32:48;95902.81;;;11.82;72.57
11676;BME280;5894;42.768;23.404;2023-03-20T09:35:15;95904.72;;;11.90;71.89
11676;BME280;5894;42.768;23.404;2023-03-20T09:37:42;95894.34;;;11.94;70.17
11676;BME280;5894;42.768;23.404;2023-03-20T09:40:20;95878.16;;;11.95;73.35
11676;BME280;5894;42.768;23.404;2023-03-20T09:42:52;95884.78;;;12.15;71.10
11676;BME280;5894;42.768;23.404;2023-03-20T09:45:35;95851.31;;;12.02;67.18
11676;BME280;5894;42.768;23.404;2023-03-20T09:48:08;95878.16;;;12.26;71.08
11676;BME280;5894;42.768;23.404;2023-03-20T09:50:45;95871.06;;;12.35;69.77
11676;BME280;5894;42.768;23.404;2023-03-20T09:53:21;95870.34;;;12.43;66.78
11676;BME280;5894;42.768;23.404;2023-03-20T09:55:51;95758.69;;;11.85;67.49
11676;BME280;5894;42.768;23.404;2023-03-20T09:58:23;95850.00;;;12.61;67.80
11676;BME280;5894;42.768;23.404;2023-03-20T10:00:54;95839.91;;;12.63;65.93
11676;BME280;5894;42.768;23.404;2023-03-20T10:03:26;95829.75;;;12.57;68.63
11676;BME280;5894;42.768;23.404;2023-03-20T10:05:58;95839.31;;;12.75;64.58
11676;BME280;5894;42.768;23.404;2023-03-20T10:08:28;95837.94;;;12.86;62.94
11676;BME280;5894;42.768;23.404;2023-03-20T10:11:04;95831.09;;;13.02;63.33
11676;BME280;5894;42.768;23.404;2023-03-20T10:13:50;95819.16;;;13.22;62.09
11676;BME280;5894;42.768;23.404;2023-03-20T10:16:32;95817.28;;;13.40;60.31
11676;BME280;5894;42.768;23.404;2023-03-20T10:19:07;95816.34;;;13.53;59.25
11676;BME280;5894;42.768;23.404;2023-03-20T10:21:43;95817.13;;;13.53;59.65
11676;BME280;5894;42.768;23.404;2023-03-20T10:24:16;95807.78;;;13.56;57.58
11676;BME280;5894;42.768;23.404;2023-03-20T10:26:51;95809.63;;;13.64;57.92
11676;BME280;5894;42.768;23.404;2023-03-20T10:29:26;95806.97;;;13.73;58.78
11676;BME280;5894;42.768;23.404;2023-03-20T10:32:02;95805.41;;;13.80;56.57
11676;BME280;5894;42.768;23.404;2023-03-20T10:34:48;95799.59;;;13.95;57.70
11676;BME280;5894;42.768;23.404;2023-03-20T10:37:27;95797.22;;;14.11;55.89
11676;BME280;5894;42.768;23.404;2023-03-20T10:40:09;95794.22;;;14.13;57.03
11676;BME280;5894;42.768;23.404;2023-03-20T10:42:40;95781.38;;;14.23;53.89
11676;BME280;5894;42.768;23.404;2023-03-20T10:45:21;95785.56;;;14.33;52.81
11676;BME280;5894;42.768;23.404;2023-03-20T10:47:55;95780.09;;;14.38;54.23
11676;BME280;5894;42.768;23.404;2023-03-20T10:50:28;95771.00;;;14.48;54.82
11676;BME280;5894;42.768;23.404;2023-03-20T10:52:58;95768.50;;;14.51;55.02
11676;BME280;5894;42.768;23.404;2023-03-20T10:55:30;95766.25;;;14.62;53.20
11676;BME280;5894;42.768;23.404;2023-03-20T10:58:02;95734.00;;;14.51;54.13
11676;BME280;5894;42.768;23.404;2023-03-20T11:00:32;95615.19;;;13.77;54.54
11676;BME280;5894;42.768;23.404;2023-03-20T11:02:58;95751.69;;;14.89;53.25
11676;BME280;5894;42.768;23.404;2023-03-20T11:05:29;95743.34;;;14.99;52.05
11676;BME280;5894;42.768;23.404;2023-03-20T11:08:01;95699.63;;;14.76;53.81
11676;BME280;5894;42.768;23.404;2023-03-20T11:10:31;95738.25;;;15.15;53.53
11676;BME280;5894;42.768;23.404;2023-03-20T11:13:11;95741.13;;;15.22;52.26
11676;BME280;5894;42.768;23.404;2023-03-20T11:15:41;95730.25;;;15.35;48.26
11676;BME280;5894;42.768;23.404;2023-03-20T11:18:10;95730.34;;;15.39;50.28
11676;BME280;5894;42.768;23.404;2023-03-20T11:20:44;95724.16;;;15.47;50.27
11676;BME280;5894;42.768;23.404;2023-03-20T11:23:14;95709.00;;;15.48;48.89
11676;BME280;5894;42.768;23.404;2023-03-20T11:25:48;95634.84;;;15.10;47.24
11676;BME280;5894;42.768;23.404;2023-03-20T11:28:26;95717.50;;;15.74;46.73
11676;BME280;5894;42.768;23.404;2023-03-20T11:30:58;95709.75;;;15.81;47.20
11676;BME280;5894;42.768;23.404;2023-03-20T11:33:26;95707.00;;;15.90;47.34
11676;BME280;5894;42.768;23.404;2023-03-20T11:35:55;95697.81;;;15.99;48.08
11676;BME280;5894;42.768;23.404;2023-03-20T11:38:23;95689.81;;;16.11;44.15
11676;BME280;5894;42.768;23.404;2023-03-20T11:40:50;95690.94;;;16.23;42.49
11676;BME280;5894;42.768;23.404;2023-03-20T11:43:20;95681.06;;;16.35;42.32
11676;BME280;5894;42.768;23.404;2023-03-20T11:45:49;95674.19;;;16.46;43.65
11676;BME280;5894;42.768;23.404;2023-03-20T11:48:20;95673.59;;;16.53;44.34
11676;BME280;5894;42.768;23.404;2023-03-20T11:50:58;95661.72;;;16.63;45.29
11676;BME280;5894;42.768;23.404;2023-03-20T11:53:29;95614.06;;;16.45;43.93
11676;BME280;5894;42.768;23.404;2023-03-20T11:56:01;95653.16;;;16.81;42.43
11676;BME280;5894;42.768;23.404;2023-03-20T11:58:29;95670.56;;;16.91;40.74
11676;BME280;5894;42.768;23.404;2023-03-20T12:00:57;95644.88;;;16.99;40.84
11676;BME280;5894;42.768;23.404;2023-03-20T12:03:42;95645.16;;;17.09;38.69
11676;BME280;5894;42.768;23.404;2023-03-20T12:06:14;95651.34;;;17.13;39.31
11676;BME280;5894;42.768;23.404;2023-03-20T12:08:46;95622.63;;;17.07;38.28
11676;BME280;5894;42.768;23.404;2023-03-20T12:11:36;95635.13;;;17.34;39.19
11676;BME280;5894;42.768;23.404;2023-03-20T12:14:09;95636.88;;;17.42;38.90
11676;BME280;5894;42.768;23.404;2023-03-20T12:16:39;95632.59;;;17.53;35.78
11676;BME280;5894;42.768;23.404;2023-03-20T12:19:11;95625.38;;;17.70;32.82
11676;BME280;5894;42.768;23.404;2023-03-20T12:21:46;95603.56;;;17.64;36.47
11676;BME280;5894;42.768;23.404;2023-03-20T12:24:22;95620.66;;;17.79;37.67
11676;BME280;5894;42.768;23.404;2023-03-20T12:26:55;95621.56;;;17.86;37.57
11676;BME280;5894;42.768;23.404;2023-03-20T12:29:29;95552.94;;;17.52;37.95
11676;BME280;5894;42.768;23.404;2023-03-20T12:32:00;95610.91;;;18.02;37.04
11676;BME280;5894;42.768;23.404;2023-03-20T12:34:32;95618.25;;;18.24;34.80
11676;BME280;5894;42.768;23.404;2023-03-20T12:37:00;95590.44;;;18.25;33.90
11676;BME280;5894;42.768;23.404;2023-03-20T12:39:31;95606.78;;;18.59;30.32
11676;BME280;5894;42.768;23.404;2023-03-20T12:42:08;95603.56;;;18.69;31.87
11676;BME280;5894;42.768;23.404;2023-03-20T12:44:38;95597.38;;;18.84;31.11
11676;BME280;5894;42.768;23.404;2023-03-20T12:47:16;95554.72;;;18.68;29.31
11676;BME280;5894;42.768;23.404;2023-03-20T12:49:56;95577.44;;;19.01;31.91
11676;BME280;5894;42.768;23.404;2023-03-20T12:52:36;95587.16;;;19.32;31.78
11676;BME280;5894;42.768;23.404;2023-03-20T12:55:22;95585.25;;;19.52;30.87
11676;BME280;5894;42.768;23.404;2023-03-20T12:58:00;95560.03;;;19.53;30.55
11676;BME280;5894;42.768;23.404;2023-03-20T13:00:32;95550.09;;;19.53;29.75
11676;BME280;5894;42.768;23.404;2023-03-20T13:03:18;95573.38;;;19.75;27.50
11676;BME280;5894;42.768;23.404;2023-03-20T13:05:55;95563.72;;;19.67;29.83
11676;BME280;5894;42.768;23.404;2023-03-20T13:08:46;95570.72;;;19.75;30.30
11676;BME280;5894;42.768;23.404;2023-03-20T13:11:21;95555.34;;;19.69;27.31
11676;BME280;5894;42.768;23.404;2023-03-20T13:13:54;95561.03;;;19.67;28.37
11676;BME280;5894;42.768;23.404;2023-03-20T13:16:33;95555.63;;;19.64;29.32
11676;BME280;5894;42.768;23.404;2023-03-20T13:19:11;95550.63;;;19.62;29.70
11676;BME280;5894;42.768;23.404;2023-03-20T13:21:46;95551.00;;;19.61;29.36
11676;BME280;5894;42.768;23.404;2023-03-20T13:24:26;95541.47;;;19.63;29.41
11676;BME280;5894;42.768;23.404;2023-03-20T13:27:02;95539.88;;;19.59;29.15
11676;BME280;5894;42.768;23.404;2023-03-20T13:29:37;95496.81;;;19.41;29.70
11676;BME280;5894;42.768;23.404;2023-03-20T13:32:16;95533.34;;;19.56;29.77
11676;BME280;5894;42.768;23.404;2023-03-20T13:34:59;95509.00;;;19.42;29.44